createdAt,value
2024-04-24T00:00:11.891Z,0.00
2024-04-24T00:01:11.936Z,0.00
2024-04-24T00:02:11.954Z,0.00
2024-04-24T00:03:11.968Z,0.00
2024-04-24T00:04:11.912Z,0.00
2024-04-24T00:05:11.990Z,0.00
2024-04-24T00:06:11.838Z,0.00
2024-04-24T00:07:11.862Z,0.00
2024-04-24T00:08:11.967Z,0.00
2024-04-24T00:09:11.863Z,0.00
2024-04-24T00:10:11.785Z,0.00
2024-04-24T00:11:12.003Z,0.00
2024-04-24T00:12:11.921Z,0.00
2024-04-24T00:13:11.749Z,0.00
2024-04-24T00:14:11.793Z,0.00
2024-04-24T00:15:11.758Z,0.00
2024-04-24T00:16:11.842Z,0.00
2024-04-24T00:17:11.745Z,0.00
2024-04-24T00:18:11.765Z,0.00
2024-04-24T00:19:11.688Z,0.00
2024-04-24T00:20:11.689Z,0.00
2024-04-24T00:21:11.724Z,0.00
2024-04-24T00:22:11.679Z,0.00
2024-04-24T00:23:11.695Z,0.00
2024-04-24T00:24:11.646Z,0.00
2024-04-24T00:25:11.626Z,0.00
2024-04-24T00:26:11.671Z,0.00
2024-04-24T00:27:11.610Z,0.00
2024-04-24T00:28:11.612Z,0.00
2024-04-24T00:29:11.618Z,0.00
2024-04-24T00:30:11.599Z,0.00
2024-04-24T00:31:11.565Z,0.00
2024-04-24T00:32:11.582Z,0.00
2024-04-24T00:33:11.634Z,0.00
2024-04-24T00:34:11.540Z,0.00
2024-04-24T00:35:11.562Z,0.00
2024-04-24T00:36:11.511Z,0.00
2024-04-24T00:37:11.506Z,0.00
2024-04-24T00:38:11.515Z,0.00
2024-04-24T00:39:11.514Z,0.00
2024-04-24T00:40:11.474Z,0.00
2024-04-24T00:41:11.490Z,0.00
2024-04-24T00:42:11.445Z,0.00
2024-04-24T00:43:11.450Z,0.00
2024-04-24T00:44:11.462Z,0.00
2024-04-24T00:45:11.424Z,0.00
2024-04-24T00:46:11.407Z,0.00
2024-04-24T00:47:11.464Z,0.00
2024-04-24T00:48:11.436Z,0.00
2024-04-24T00:49:11.373Z,0.00
2024-04-24T00:50:11.434Z,0.00
2024-04-24T00:51:11.369Z,0.00
2024-04-24T00:52:11.344Z,0.00
2024-04-24T00:53:11.353Z,0.00
2024-04-24T00:54:11.339Z,0.00
2024-04-24T00:55:11.324Z,0.00
2024-04-24T00:56:11.339Z,0.00
2024-04-24T00:57:11.298Z,0.00
2024-04-24T00:58:11.284Z,0.00
2024-04-24T00:59:11.307Z,0.00
2024-04-24T01:00:11.278Z,0.00
2024-04-24T01:01:11.315Z,0.00
2024-04-24T01:02:11.254Z,0.00
2024-04-24T01:03:11.269Z,0.00
2024-04-24T01:04:11.280Z,0.00
2024-04-24T01:05:11.221Z,0.00
2024-04-24T01:06:11.195Z,0.00
2024-04-24T01:07:11.213Z,0.00
2024-04-24T01:08:11.192Z,0.00
2024-04-24T01:09:11.161Z,0.00
2024-04-24T01:10:11.159Z,0.00
2024-04-24T01:11:11.210Z,0.00
2024-04-24T01:12:11.200Z,0.00
2024-04-24T01:13:11.126Z,0.00
2024-04-24T01:14:11.156Z,0.00
2024-04-24T01:15:11.107Z,0.00
2024-04-24T01:16:11.104Z,0.00
2024-04-24T01:17:11.162Z,0.00
2024-04-24T01:18:11.185Z,0.00
2024-04-24T01:19:11.057Z,0.00
2024-04-24T01:20:11.133Z,0.00
2024-04-24T01:21:11.038Z,0.00
2024-04-24T01:22:11.050Z,0.00
2024-04-24T01:23:11.062Z,0.00
2024-04-24T01:24:11.026Z,0.00
2024-04-24T01:25:10.996Z,0.00
2024-04-24T01:26:11.040Z,0.00
2024-04-24T01:27:10.980Z,0.00
2024-04-24T01:28:10.996Z,0.00
2024-04-24T01:29:10.979Z,0.00
2024-04-24T01:30:10.952Z,0.00
2024-04-24T01:31:10.937Z,0.00
2024-04-24T01:32:11.039Z,0.00
2024-04-24T01:33:10.987Z,0.00
2024-04-24T01:34:10.916Z,0.00
2024-04-24T01:35:10.945Z,0.00
2024-04-24T01:36:10.897Z,0.00
2024-04-24T01:37:10.880Z,0.00
2024-04-24T01:38:10.902Z,0.00
2024-04-24T01:39:10.918Z,0.00
2024-04-24T01:40:10.857Z,0.00
2024-04-24T01:41:10.925Z,0.00
2024-04-24T01:42:10.823Z,0.00
2024-04-24T01:43:10.837Z,0.00
2024-04-24T01:44:10.832Z,0.00
2024-04-24T01:45:10.787Z,0.00
2024-04-24T01:46:10.799Z,0.00
2024-04-24T01:47:10.909Z,0.00
2024-04-24T01:48:10.800Z,0.00
2024-04-24T01:49:10.759Z,0.00
2024-04-24T01:50:10.787Z,0.00
2024-04-24T01:51:10.738Z,0.00
2024-04-24T01:52:10.719Z,0.00
2024-04-24T01:53:10.777Z,0.00
2024-04-24T01:54:10.727Z,0.00
2024-04-24T01:55:10.719Z,0.00
2024-04-24T01:56:10.733Z,0.00
2024-04-24T01:57:10.675Z,0.00
2024-04-24T01:58:10.656Z,0.00
2024-04-24T01:59:10.699Z,0.00
2024-04-24T02:00:10.717Z,0.00
2024-04-24T02:01:10.678Z,0.00
2024-04-24T02:02:10.651Z,0.00
2024-04-24T02:03:10.663Z,0.00
2024-04-24T02:04:10.674Z,0.00
2024-04-24T02:05:10.606Z,0.00
2024-04-24T02:06:10.584Z,0.00
2024-04-24T02:07:10.568Z,0.00
2024-04-24T02:08:10.587Z,0.00
2024-04-24T02:09:10.544Z,0.00
2024-04-24T02:10:10.560Z,0.00
2024-04-24T02:11:10.582Z,0.00
2024-04-24T02:12:16.137Z,0.00
2024-04-24T02:13:10.505Z,0.00
2024-04-24T02:14:10.529Z,0.00
2024-04-24T02:15:10.496Z,0.00
2024-04-24T02:16:10.492Z,0.00
2024-04-24T02:17:10.579Z,0.00
2024-04-24T02:18:10.518Z,0.00
2024-04-24T02:19:10.438Z,0.00
2024-04-24T02:20:10.501Z,0.00
2024-04-24T02:21:10.434Z,0.00
2024-04-24T02:22:10.437Z,0.00
2024-04-24T02:23:10.436Z,0.00
2024-04-24T02:24:10.388Z,0.00
2024-04-24T02:25:10.384Z,0.00
2024-04-24T02:26:10.410Z,0.00
2024-04-24T02:27:10.360Z,0.00
2024-04-24T02:28:10.355Z,0.00
2024-04-24T02:29:10.352Z,0.00
2024-04-24T02:30:10.323Z,0.00
2024-04-24T02:31:10.330Z,0.00
2024-04-24T02:32:10.390Z,0.00
2024-04-24T02:33:10.526Z,0.00
2024-04-24T02:34:10.300Z,0.00
2024-04-24T02:35:10.326Z,0.00
2024-04-24T02:36:10.259Z,0.00
2024-04-24T02:37:10.267Z,0.00
2024-04-24T02:38:10.271Z,0.00
2024-04-24T02:39:10.245Z,0.00
2024-04-24T02:40:10.216Z,0.00
2024-04-24T02:41:10.229Z,0.00
2024-04-24T02:42:10.215Z,0.00
2024-04-24T02:43:10.205Z,0.00
2024-04-24T02:44:10.200Z,0.00
2024-04-24T02:45:10.171Z,0.00
2024-04-24T02:46:10.160Z,0.00
2024-04-24T02:47:10.196Z,0.00
2024-04-24T02:48:10.179Z,0.00
2024-04-24T02:49:10.150Z,0.00
2024-04-24T02:50:10.195Z,0.00
2024-04-24T02:51:10.107Z,0.00
2024-04-24T02:52:10.099Z,0.00
2024-04-24T02:53:10.128Z,0.00
2024-04-24T02:54:10.075Z,0.00
2024-04-24T02:55:10.078Z,0.00
2024-04-24T02:56:10.072Z,0.00
2024-04-24T02:57:10.054Z,0.00
2024-04-24T02:58:10.030Z,0.00
2024-04-24T02:59:10.054Z,0.00
2024-04-24T03:00:10.033Z,0.00
2024-04-24T03:01:10.005Z,0.00
2024-04-24T03:02:10.040Z,0.00
2024-04-24T03:03:10.081Z,0.00
2024-04-24T03:04:09.973Z,0.00
2024-04-24T03:05:10.020Z,0.00
2024-04-24T03:06:09.968Z,0.00
2024-04-24T03:07:09.960Z,0.00
2024-04-24T03:08:10.010Z,0.00
2024-04-24T03:09:09.921Z,0.00
2024-04-24T03:10:09.914Z,0.00
2024-04-24T03:11:09.962Z,0.00
2024-04-24T03:12:09.902Z,0.00
2024-04-24T03:13:09.886Z,0.00
2024-04-24T03:14:09.925Z,0.00
2024-04-24T03:15:09.871Z,0.00
2024-04-24T03:16:09.855Z,0.00
2024-04-24T03:17:10.005Z,0.00
2024-04-24T03:18:09.926Z,0.00
2024-04-24T03:19:09.843Z,0.00
2024-04-24T03:20:09.840Z,0.00
2024-04-24T03:21:09.797Z,0.00
2024-04-24T03:22:09.783Z,0.00
2024-04-24T03:23:09.799Z,0.00
2024-04-24T03:24:09.777Z,0.00
2024-04-24T03:25:09.764Z,0.00
2024-04-24T03:26:09.776Z,0.00
2024-04-24T03:27:09.744Z,0.00
2024-04-24T03:28:09.723Z,0.00
2024-04-24T03:29:09.809Z,0.00
2024-04-24T03:30:09.705Z,0.00
2024-04-24T03:31:09.692Z,0.00
2024-04-24T03:32:09.745Z,0.00
2024-04-24T03:33:09.759Z,0.00
2024-04-24T03:34:09.662Z,0.00
2024-04-24T03:35:09.674Z,0.00
2024-04-24T03:36:09.675Z,0.00
2024-04-24T03:37:09.634Z,0.00
2024-04-24T03:38:09.661Z,0.00
2024-04-24T03:39:09.638Z,0.00
2024-04-24T03:40:09.562Z,1.00
2024-04-24T03:41:09.655Z,0.00
2024-04-24T03:42:09.591Z,0.00
2024-04-24T03:43:09.537Z,1.00
2024-04-24T03:44:09.535Z,1.00
2024-04-24T03:45:09.563Z,0.00
2024-04-24T03:46:09.556Z,0.00
2024-04-24T03:47:09.552Z,0.00
2024-04-24T03:48:09.506Z,2.00
2024-04-24T03:49:09.468Z,1.00
2024-04-24T03:50:09.468Z,1.00
2024-04-24T03:51:09.489Z,0.00
2024-04-24T03:52:09.477Z,0.00
2024-04-24T03:53:09.508Z,0.00
2024-04-24T03:54:09.416Z,1.00
2024-04-24T03:55:09.401Z,1.00
2024-04-24T03:56:09.394Z,6.00
2024-04-24T03:57:09.386Z,4.00
2024-04-24T03:58:09.357Z,3.00
2024-04-24T03:59:09.392Z,2.00
2024-04-24T04:00:09.332Z,1.00
2024-04-24T04:01:09.384Z,1.00
2024-04-24T04:02:09.413Z,2.00
2024-04-24T04:03:09.342Z,2.00
2024-04-24T04:04:09.316Z,2.00
2024-04-24T04:05:09.313Z,7.00
2024-04-24T04:06:09.282Z,6.00
2024-04-24T04:07:09.282Z,5.00
2024-04-24T04:08:09.265Z,4.00
2024-04-24T04:09:09.246Z,5.00
2024-04-24T04:10:09.253Z,4.00
2024-04-24T04:11:09.283Z,3.00
2024-04-24T04:12:13.056Z,8.00
2024-04-24T04:13:09.232Z,6.00
2024-04-24T04:14:09.232Z,6.00
2024-04-24T04:15:09.204Z,6.00
2024-04-24T04:16:09.188Z,6.00
2024-04-24T04:17:09.239Z,6.00
2024-04-24T04:18:09.367Z,8.00
2024-04-24T04:19:09.174Z,10.00
2024-04-24T04:20:09.183Z,8.00
2024-04-24T04:21:09.135Z,9.00
2024-04-24T04:22:09.120Z,10.00
2024-04-24T04:23:09.153Z,11.00
2024-04-24T04:24:09.096Z,10.00
2024-04-24T04:25:09.076Z,12.00
2024-04-24T04:26:09.095Z,12.00
2024-04-24T04:27:09.067Z,14.00
2024-04-24T04:28:09.051Z,15.00
2024-04-24T04:29:09.071Z,20.00
2024-04-24T04:30:09.061Z,16.00
2024-04-24T04:31:09.016Z,21.00
2024-04-24T04:32:09.017Z,23.00
2024-04-24T04:33:09.107Z,24.00
2024-04-24T04:34:08.996Z,23.00
2024-04-24T04:35:09.054Z,25.00
2024-04-24T04:36:08.963Z,28.00
2024-04-24T04:37:08.956Z,30.00
2024-04-24T04:38:09.039Z,33.00
2024-04-24T04:39:08.966Z,35.00
2024-04-24T04:40:08.915Z,37.00
2024-04-24T04:41:08.953Z,43.00
2024-04-24T04:42:08.901Z,40.00
2024-04-24T04:43:08.885Z,44.00
2024-04-24T04:44:08.912Z,44.00
2024-04-24T04:45:08.867Z,48.00
2024-04-24T04:46:08.850Z,53.00
2024-04-24T04:47:08.936Z,61.00
2024-04-24T04:48:09.043Z,70.00
2024-04-24T04:49:08.819Z,82.00
2024-04-24T04:50:08.855Z,78.00
2024-04-24T04:51:08.799Z,75.00
2024-04-24T04:52:08.789Z,78.00
2024-04-24T04:53:08.904Z,89.00
2024-04-24T04:54:08.766Z,89.00
2024-04-24T04:55:08.759Z,98.00
2024-04-24T04:56:08.753Z,99.00
2024-04-24T04:57:08.753Z,102.00
2024-04-24T04:58:08.724Z,105.00
2024-04-24T04:59:09.022Z,105.00
2024-04-24T05:00:08.710Z,106.00
2024-04-24T05:01:08.764Z,106.00
2024-04-24T05:02:08.775Z,107.00
2024-04-24T05:03:08.752Z,105.00
2024-04-24T05:04:08.704Z,100.00
2024-04-24T05:05:08.711Z,90.00
2024-04-24T05:06:08.667Z,93.00
2024-04-24T05:07:08.634Z,104.00
2024-04-24T05:08:08.676Z,116.00
2024-04-24T05:09:08.609Z,128.00
2024-04-24T05:10:08.627Z,139.00
2024-04-24T05:11:08.776Z,152.00
2024-04-24T05:12:08.637Z,172.00
2024-04-24T05:13:08.567Z,190.00
2024-04-24T05:14:08.569Z,202.00
2024-04-24T05:15:08.561Z,206.00
2024-04-24T05:16:08.535Z,203.00
2024-04-24T05:17:08.635Z,198.00
2024-04-24T05:18:08.704Z,195.00
2024-04-24T05:19:08.576Z,192.00
2024-04-24T05:20:08.549Z,190.00
2024-04-24T05:21:08.493Z,187.00
2024-04-24T05:22:08.478Z,182.00
2024-04-24T05:23:08.528Z,180.00
2024-04-24T05:24:08.486Z,179.00
2024-04-24T05:25:08.455Z,181.00
2024-04-24T05:26:08.449Z,183.00
2024-04-24T05:27:08.420Z,184.00
2024-04-24T05:28:08.408Z,185.00
2024-04-24T05:29:08.636Z,188.00
2024-04-24T05:30:08.384Z,190.00
2024-04-24T05:31:08.389Z,192.00
2024-04-24T05:32:08.453Z,193.00
2024-04-24T05:33:08.452Z,201.00
2024-04-24T05:34:08.347Z,213.00
2024-04-24T05:35:08.360Z,226.00
2024-04-24T05:36:08.339Z,235.00
2024-04-24T05:37:10.771Z,237.00
2024-04-24T05:38:08.358Z,250.00
2024-04-24T05:39:08.300Z,264.00
2024-04-24T05:40:08.288Z,254.00
2024-04-24T05:41:08.289Z,238.00
2024-04-24T05:42:08.279Z,207.00
2024-04-24T05:43:08.248Z,165.00
2024-04-24T05:44:08.282Z,146.00
2024-04-24T05:45:08.241Z,146.00
2024-04-24T05:46:08.217Z,149.00
2024-04-24T05:47:08.263Z,154.00
2024-04-24T05:48:08.295Z,156.00
2024-04-24T05:49:08.191Z,160.00
2024-04-24T05:50:08.199Z,164.00
2024-04-24T05:51:08.166Z,170.00
2024-04-24T05:52:10.812Z,178.00
2024-04-24T05:53:08.174Z,185.00
2024-04-24T05:54:08.138Z,190.00
2024-04-24T05:55:08.134Z,199.00
2024-04-24T05:56:08.203Z,217.00
2024-04-24T05:57:08.126Z,242.00
2024-04-24T05:58:08.098Z,264.00
2024-04-24T05:59:08.208Z,281.00
2024-04-24T06:00:08.244Z,292.00
2024-04-24T06:01:08.098Z,303.00
2024-04-24T06:02:08.084Z,319.00
2024-04-24T06:03:08.245Z,340.00
2024-04-24T06:04:08.066Z,361.00
2024-04-24T06:05:08.117Z,378.00
2024-04-24T06:06:08.013Z,397.00
2024-04-24T06:07:08.005Z,413.00
2024-04-24T06:08:08.114Z,423.00
2024-04-24T06:09:07.996Z,444.00
2024-04-24T06:10:07.970Z,486.00
2024-04-24T06:11:08.016Z,491.00
2024-04-24T06:12:08.019Z,472.00
2024-04-24T06:13:07.939Z,371.00
2024-04-24T06:14:07.950Z,251.00
2024-04-24T06:15:07.943Z,196.00
2024-04-24T06:16:07.906Z,196.00
2024-04-24T06:17:07.938Z,202.00
2024-04-24T06:18:07.967Z,210.00
2024-04-24T06:19:07.907Z,223.00
2024-04-24T06:20:07.916Z,235.00
2024-04-24T06:21:07.868Z,248.00
2024-04-24T06:22:07.854Z,261.00
2024-04-24T06:23:07.869Z,273.00
2024-04-24T06:24:10.459Z,285.00
2024-04-24T06:25:07.821Z,299.00
2024-04-24T06:26:07.812Z,316.00
2024-04-24T06:27:07.792Z,329.00
2024-04-24T06:28:07.773Z,385.00
2024-04-24T06:29:07.811Z,427.00
2024-04-24T06:30:07.765Z,353.00
2024-04-24T06:31:07.740Z,273.00
2024-04-24T06:32:07.830Z,268.00
2024-04-24T06:33:07.770Z,263.00
2024-04-24T06:34:08.820Z,258.00
2024-04-24T06:35:07.750Z,256.00
2024-04-24T06:36:07.705Z,258.00
2024-04-24T06:37:07.696Z,263.00
2024-04-24T06:38:07.702Z,271.00
2024-04-24T06:39:07.667Z,278.00
2024-04-24T06:40:07.715Z,285.00
2024-04-24T06:41:07.687Z,294.00
2024-04-24T06:42:07.634Z,301.00
2024-04-24T06:43:07.624Z,308.00
2024-04-24T06:44:07.669Z,328.00
2024-04-24T06:45:07.589Z,355.00
2024-04-24T06:46:07.590Z,340.00
2024-04-24T06:47:07.587Z,306.00
2024-04-24T06:48:07.661Z,300.00
2024-04-24T06:49:07.572Z,310.00
2024-04-24T06:50:07.674Z,329.00
2024-04-24T06:51:07.542Z,354.00
2024-04-24T06:52:07.525Z,385.00
2024-04-24T06:53:07.548Z,411.00
2024-04-24T06:54:07.493Z,430.00
2024-04-24T06:55:07.475Z,443.00
2024-04-24T06:56:07.494Z,456.00
2024-04-24T06:57:07.476Z,472.00
2024-04-24T06:58:07.459Z,495.00
2024-04-24T06:59:07.465Z,512.00
2024-04-24T07:00:07.422Z,569.00
2024-04-24T07:01:07.505Z,601.00
2024-04-24T07:02:07.548Z,568.00
2024-04-24T07:03:07.449Z,485.00
2024-04-24T07:04:07.395Z,499.00
2024-04-24T07:05:07.393Z,544.00
2024-04-24T07:06:07.360Z,569.00
2024-04-24T07:07:07.355Z,522.00
2024-04-24T07:08:07.375Z,450.00
2024-04-24T07:09:07.330Z,401.00
2024-04-24T07:10:07.302Z,396.00
2024-04-24T07:11:07.462Z,418.00
2024-04-24T07:12:07.340Z,449.00
2024-04-24T07:13:07.274Z,470.00
2024-04-24T07:14:07.350Z,468.00
2024-04-24T07:15:07.247Z,434.00
2024-04-24T07:16:07.257Z,408.00
2024-04-24T07:17:07.301Z,404.00
2024-04-24T07:18:07.289Z,389.00
2024-04-24T07:19:07.259Z,357.00
2024-04-24T07:20:07.271Z,338.00
2024-04-24T07:21:07.202Z,332.00
2024-04-24T07:22:07.183Z,310.00
2024-04-24T07:23:07.212Z,299.00
2024-04-24T07:24:07.160Z,319.00
2024-04-24T07:25:07.157Z,330.00
2024-04-24T07:26:07.165Z,323.00
2024-04-24T07:27:07.124Z,314.00
2024-04-24T07:28:07.112Z,303.00
2024-04-24T07:29:07.186Z,282.00
2024-04-24T07:30:07.124Z,267.00
2024-04-24T07:31:07.093Z,270.00
2024-04-24T07:32:07.102Z,280.00
2024-04-24T07:33:07.108Z,297.00
2024-04-24T07:34:07.126Z,315.00
2024-04-24T07:35:07.063Z,329.00
2024-04-24T07:36:08.502Z,337.00
2024-04-24T07:37:07.019Z,343.00
2024-04-24T07:38:07.072Z,355.00
2024-04-24T07:39:07.006Z,365.00
2024-04-24T07:40:07.000Z,363.00
2024-04-24T07:41:07.296Z,351.00
2024-04-24T07:42:06.975Z,334.00
2024-04-24T07:43:06.953Z,322.00
2024-04-24T07:44:07.036Z,315.00
2024-04-24T07:45:06.933Z,293.00
2024-04-24T07:46:06.950Z,282.00
2024-04-24T07:47:07.051Z,290.00
2024-04-24T07:48:07.085Z,303.00
2024-04-24T07:49:06.896Z,320.00
2024-04-24T07:50:06.975Z,338.00
2024-04-24T07:51:06.930Z,354.00
2024-04-24T07:52:06.909Z,367.00
2024-04-24T07:53:06.862Z,378.00
2024-04-24T07:54:06.865Z,401.00
2024-04-24T07:55:06.849Z,438.00
2024-04-24T07:56:06.814Z,471.00
2024-04-24T07:57:06.843Z,478.00
2024-04-24T07:58:06.834Z,431.00
2024-04-24T07:59:06.849Z,382.00
2024-04-24T08:00:06.774Z,353.00
2024-04-24T08:01:06.812Z,344.00
2024-04-24T08:02:06.760Z,334.00
2024-04-24T08:03:06.838Z,314.00
2024-04-24T08:04:06.864Z,297.00
2024-04-24T08:05:06.739Z,275.00
2024-04-24T08:06:06.728Z,256.00
2024-04-24T08:07:06.697Z,247.00
2024-04-24T08:08:06.707Z,234.00
2024-04-24T08:09:06.676Z,235.00
2024-04-24T08:10:06.693Z,237.00
2024-04-24T08:11:06.804Z,240.00
2024-04-24T08:12:08.845Z,247.00
2024-04-24T08:13:06.659Z,257.00
2024-04-24T08:14:06.653Z,264.00
2024-04-24T08:15:06.631Z,266.00
2024-04-24T08:16:06.705Z,268.00
2024-04-24T08:17:06.616Z,267.00
2024-04-24T08:18:06.671Z,269.00
2024-04-24T08:19:06.568Z,275.00
2024-04-24T08:20:06.602Z,284.00
2024-04-24T08:21:06.556Z,296.00
2024-04-24T08:22:06.560Z,314.00
2024-04-24T08:23:06.560Z,331.00
2024-04-24T08:24:06.561Z,348.00
2024-04-24T08:25:06.521Z,367.00
2024-04-24T08:26:06.523Z,390.00
2024-04-24T08:27:06.497Z,409.00
2024-04-24T08:28:08.624Z,422.00
2024-04-24T08:29:06.504Z,451.00
2024-04-24T08:30:06.480Z,473.00
2024-04-24T08:31:06.437Z,469.00
2024-04-24T08:32:06.440Z,455.00
2024-04-24T08:33:06.473Z,463.00
2024-04-24T08:34:06.460Z,484.00
2024-04-24T08:35:06.436Z,479.00
2024-04-24T08:36:06.448Z,446.00
2024-04-24T08:37:06.375Z,470.00
2024-04-24T08:38:06.394Z,491.00
2024-04-24T08:39:07.288Z,483.00
2024-04-24T08:40:06.358Z,475.00
2024-04-24T08:41:06.357Z,400.00
2024-04-24T08:42:06.352Z,329.00
2024-04-24T08:43:06.307Z,304.00
2024-04-24T08:44:06.356Z,281.00
2024-04-24T08:45:06.300Z,275.00
2024-04-24T08:46:06.292Z,294.00
2024-04-24T08:47:06.304Z,308.00
2024-04-24T08:48:06.293Z,336.00
2024-04-24T08:49:06.360Z,342.00
2024-04-24T08:50:06.274Z,270.00
2024-04-24T08:51:06.232Z,250.00
2024-04-24T08:52:06.250Z,241.00
2024-04-24T08:53:06.200Z,236.00
2024-04-24T08:54:06.234Z,259.00
2024-04-24T08:55:06.181Z,309.00
2024-04-24T08:56:06.211Z,260.00
2024-04-24T08:57:06.186Z,278.00
2024-04-24T08:58:06.159Z,271.00
2024-04-24T08:59:06.157Z,252.00
2024-04-24T09:00:06.140Z,258.00
2024-04-24T09:01:06.192Z,221.00
2024-04-24T09:02:06.151Z,187.00
2024-04-24T09:03:06.214Z,169.00
2024-04-24T09:04:06.359Z,157.00
2024-04-24T09:05:06.155Z,163.00
2024-04-24T09:06:06.063Z,169.00
2024-04-24T09:07:06.056Z,175.00
2024-04-24T09:08:06.093Z,184.00
2024-04-24T09:09:06.029Z,197.00
2024-04-24T09:10:06.036Z,212.00
2024-04-24T09:11:06.038Z,221.00
2024-04-24T09:12:06.032Z,232.00
2024-04-24T09:13:05.991Z,248.00
2024-04-24T09:14:06.013Z,236.00
2024-04-24T09:15:05.975Z,232.00
2024-04-24T09:16:05.975Z,241.00
2024-04-24T09:17:06.041Z,261.00
2024-04-24T09:18:06.232Z,290.00
2024-04-24T09:19:06.204Z,316.00
2024-04-24T09:20:05.969Z,333.00
2024-04-24T09:21:05.912Z,383.00
2024-04-24T09:22:05.895Z,464.00
2024-04-24T09:23:05.914Z,462.00
2024-04-24T09:24:05.901Z,296.00
2024-04-24T09:25:05.871Z,305.00
2024-04-24T09:26:05.868Z,342.00
2024-04-24T09:27:05.838Z,383.00
2024-04-24T09:28:05.828Z,410.00
2024-04-24T09:29:05.845Z,425.00
2024-04-24T09:30:05.802Z,458.00
2024-04-24T09:31:05.802Z,488.00
2024-04-24T09:32:05.853Z,485.00
2024-04-24T09:33:06.116Z,497.00
2024-04-24T09:34:05.767Z,510.00
2024-04-24T09:35:05.803Z,560.00
2024-04-24T09:36:05.734Z,543.00
2024-04-24T09:37:05.731Z,468.00
2024-04-24T09:38:05.746Z,434.00
2024-04-24T09:39:05.698Z,437.00
2024-04-24T09:40:05.695Z,449.00
2024-04-24T09:41:05.721Z,440.00
2024-04-24T09:42:05.679Z,415.00
2024-04-24T09:43:05.656Z,372.00
2024-04-24T09:44:05.719Z,331.00
2024-04-24T09:45:05.701Z,335.00
2024-04-24T09:46:05.636Z,340.00
2024-04-24T09:47:05.665Z,356.00
2024-04-24T09:48:05.755Z,367.00
2024-04-24T09:49:05.775Z,364.00
2024-04-24T09:50:05.662Z,363.00
2024-04-24T09:51:05.571Z,362.00
2024-04-24T09:52:05.559Z,365.00
2024-04-24T09:53:05.576Z,362.00
2024-04-24T09:54:05.553Z,370.00
2024-04-24T09:55:05.549Z,378.00
2024-04-24T09:56:05.649Z,398.00
2024-04-24T09:57:05.519Z,409.00
2024-04-24T09:58:05.499Z,413.00
2024-04-24T09:59:05.508Z,407.00
2024-04-24T10:00:05.539Z,393.00
2024-04-24T10:01:05.502Z,387.00
2024-04-24T10:02:05.524Z,408.00
2024-04-24T10:03:05.439Z,452.00
2024-04-24T10:04:05.454Z,455.00
2024-04-24T10:05:05.607Z,402.00
2024-04-24T10:06:05.439Z,368.00
2024-04-24T10:07:05.435Z,368.00
2024-04-24T10:08:05.413Z,388.00
2024-04-24T10:09:05.376Z,415.00
2024-04-24T10:10:05.374Z,395.00
2024-04-24T10:11:05.413Z,333.00
2024-04-24T10:12:05.396Z,281.00
2024-04-24T10:13:05.340Z,220.00
2024-04-24T10:14:05.367Z,210.00
2024-04-24T10:15:05.339Z,224.00
2024-04-24T10:16:05.309Z,255.00
2024-04-24T10:17:05.306Z,286.00
2024-04-24T10:18:05.411Z,345.00
2024-04-24T10:19:05.366Z,371.00
2024-04-24T10:20:12.121Z,301.00
2024-04-24T10:21:05.257Z,304.00
2024-04-24T10:22:05.234Z,357.00
2024-04-24T10:23:05.274Z,365.00
2024-04-24T10:24:05.233Z,336.00
2024-04-24T10:25:05.207Z,357.00
2024-04-24T10:26:05.204Z,381.00
2024-04-24T10:27:05.200Z,285.00
2024-04-24T10:28:05.190Z,213.00
2024-04-24T10:29:05.165Z,225.00
2024-04-24T10:30:05.147Z,236.00
2024-04-24T10:31:05.133Z,242.00
2024-04-24T10:32:05.166Z,255.00
2024-04-24T10:33:05.325Z,270.00
2024-04-24T10:34:05.119Z,279.00
2024-04-24T10:35:05.101Z,284.00
2024-04-24T10:36:05.076Z,291.00
2024-04-24T10:37:05.068Z,304.00
2024-04-24T10:38:05.073Z,316.00
2024-04-24T10:39:05.061Z,325.00
2024-04-24T10:40:05.030Z,330.00
2024-04-24T10:41:05.044Z,332.00
2024-04-24T10:42:05.021Z,330.00
2024-04-24T10:43:05.005Z,331.00
2024-04-24T10:44:05.011Z,338.00
2024-04-24T10:45:04.974Z,352.00
2024-04-24T10:46:04.976Z,371.00
2024-04-24T10:47:05.012Z,395.00
2024-04-24T10:48:05.001Z,422.00
2024-04-24T10:49:04.990Z,448.00
2024-04-24T10:50:04.999Z,473.00
2024-04-24T10:51:04.907Z,498.00
2024-04-24T10:52:04.906Z,526.00
2024-04-24T10:53:04.913Z,555.00
2024-04-24T10:54:05.000Z,579.00
2024-04-24T10:55:06.006Z,601.00
2024-04-24T10:56:04.886Z,625.00
2024-04-24T10:57:04.847Z,661.00
2024-04-24T10:58:04.839Z,708.00
2024-04-24T10:59:04.858Z,764.00
2024-04-24T11:00:04.808Z,820.00
2024-04-24T11:01:04.843Z,947.00
2024-04-24T11:02:04.861Z,948.00
2024-04-24T11:03:04.902Z,892.00
2024-04-24T11:04:04.865Z,1064.00
2024-04-24T11:05:04.776Z,1195.00
2024-04-24T11:06:04.779Z,908.00
2024-04-24T11:07:04.752Z,971.00
2024-04-24T11:08:04.828Z,1124.00
2024-04-24T11:09:04.718Z,1348.00
2024-04-24T11:10:04.731Z,3749.00
2024-04-24T11:11:04.846Z,1366.00
2024-04-24T11:12:04.963Z,1100.00
2024-04-24T11:13:04.675Z,1404.00
2024-04-24T11:14:04.687Z,4061.00
2024-04-24T11:15:04.647Z,1873.00
2024-04-24T11:16:10.392Z,2598.00
2024-04-24T11:17:04.658Z,2034.00
2024-04-24T11:18:04.702Z,2003.00
2024-04-24T11:19:04.616Z,1382.00
2024-04-24T11:20:04.627Z,1345.00
2024-04-24T11:21:04.611Z,1400.00
2024-04-24T11:22:04.582Z,951.00
2024-04-24T11:23:04.612Z,657.00
2024-04-24T11:24:04.547Z,550.00
2024-04-24T11:25:04.543Z,504.00
2024-04-24T11:26:04.559Z,551.00
2024-04-24T11:27:04.530Z,509.00
2024-04-24T11:28:04.516Z,534.00
2024-04-24T11:29:04.552Z,566.00
2024-04-24T11:30:04.481Z,608.00
2024-04-24T11:31:07.009Z,652.00
2024-04-24T11:32:05.727Z,694.00
2024-04-24T11:33:04.661Z,694.00
2024-04-24T11:34:04.636Z,717.00
2024-04-24T11:35:04.459Z,752.00
2024-04-24T11:36:04.425Z,851.00
2024-04-24T11:37:04.431Z,776.00
2024-04-24T11:38:04.407Z,869.00
2024-04-24T11:39:04.399Z,966.00
2024-04-24T11:40:04.387Z,888.00
2024-04-24T11:41:04.442Z,786.00
2024-04-24T11:42:04.415Z,715.00
2024-04-24T11:43:04.345Z,763.00
2024-04-24T11:44:04.381Z,765.00
2024-04-24T11:45:04.353Z,833.00
2024-04-24T11:46:04.371Z,905.00
2024-04-24T11:47:04.377Z,895.00
2024-04-24T11:48:04.369Z,832.00
2024-04-24T11:49:04.385Z,764.00
2024-04-24T11:50:04.371Z,710.00
2024-04-24T11:51:04.283Z,627.00
2024-04-24T11:52:04.253Z,561.00
2024-04-24T11:53:04.538Z,561.00
2024-04-24T11:54:04.289Z,574.00
2024-04-24T11:55:04.303Z,589.00
2024-04-24T11:56:04.250Z,607.00
2024-04-24T11:57:04.217Z,634.00
2024-04-24T11:58:04.178Z,668.00
2024-04-24T11:59:04.178Z,704.00
2024-04-24T12:00:04.176Z,751.00
2024-04-24T12:01:04.163Z,809.00
2024-04-24T12:02:04.227Z,869.00
2024-04-24T12:03:04.138Z,916.00
2024-04-24T12:04:04.114Z,955.00
2024-04-24T12:05:04.280Z,1011.00
2024-04-24T12:06:04.099Z,1138.00
2024-04-24T12:07:04.106Z,1336.00
2024-04-24T12:08:04.098Z,1407.00
2024-04-24T12:09:04.059Z,1693.00
2024-04-24T12:10:04.049Z,2814.00
2024-04-24T12:11:04.095Z,1622.00
2024-04-24T12:12:04.078Z,1159.00
2024-04-24T12:13:04.035Z,1243.00
2024-04-24T12:14:04.027Z,2140.00
2024-04-24T12:15:04.012Z,1281.00
2024-04-24T12:16:03.087Z,1209.00
2024-04-24T12:17:04.082Z,1625.00
2024-04-24T12:18:04.036Z,1444.00
2024-04-24T12:19:03.948Z,1540.00
2024-04-24T12:20:06.834Z,1388.00
2024-04-24T12:21:04.056Z,2568.00
2024-04-24T12:22:03.942Z,1788.00
2024-04-24T12:23:03.937Z,1219.00
2024-04-24T12:24:03.951Z,923.00
2024-04-24T12:25:03.913Z,780.00
2024-04-24T12:26:03.956Z,863.00
2024-04-24T12:27:03.930Z,926.00
2024-04-24T12:28:03.848Z,1097.00
2024-04-24T12:29:03.897Z,2306.00
2024-04-24T12:30:03.857Z,1746.00
2024-04-24T12:31:03.828Z,1721.00
2024-04-24T12:32:03.883Z,1373.00
2024-04-24T12:33:03.989Z,949.00
2024-04-24T12:34:04.094Z,689.00
2024-04-24T12:35:03.820Z,716.00
2024-04-24T12:36:03.772Z,753.00
2024-04-24T12:37:03.794Z,820.00
2024-04-24T12:38:03.796Z,795.00
2024-04-24T12:39:03.747Z,1122.00
2024-04-24T12:40:03.722Z,5598.00
2024-04-24T12:41:03.732Z,1361.00
2024-04-24T12:42:03.696Z,693.00
2024-04-24T12:43:03.704Z,518.00
2024-04-24T12:44:03.697Z,449.00